Time;durP1;ratioP1;P1;durP2;ratioP2;P2;SDS_P1;SDS_P2;PMS_P1;PMS_P2;Temp;Humidity;BMP_temperature;BMP_pressure;BME280_temperature;BME280_humidity;BME280_pressure;Samples;Min_cycle;Max_cycle;Signal;HPM_P1;HPM_P2
2023/03/06 00:05:13;;;;;;;2.20;1.73;;;;;;;-0.90;100.00;99831.22;5062993;28;20655;-73
2023/03/06 00:07:42;;;;;;;3.07;1.97;;;;;;;-0.91;100.00;99837.22;5067613;28;20203;-76
2023/03/06 00:10:13;;;;;;;2.53;1.50;;;;;;;-0.95;100.00;99828.63;5055983;28;20261;-73
2023/03/06 00:12:39;;;;;;;2.77;1.63;;;;;;;-0.93;100.00;99821.84;5056948;28;20309;-73
2023/03/06 00:15:07;;;;;;;2.37;1.80;;;;;;;-0.91;100.00;99817.56;5056497;28;20475;-74
2023/03/06 00:17:34;;;;;;;3.33;2.00;;;;;;;-0.91;100.00;99817.56;5052888;28;20248;-74
2023/03/06 00:20:00;;;;;;;3.50;1.93;;;;;;;-0.89;100.00;99815.03;5063282;28;20683;-73
2023/03/06 00:22:28;;;;;;;2.30;1.83;;;;;;;-0.91;100.00;99820.13;5062919;28;20226;-73
2023/03/06 00:24:55;;;;;;;2.60;2.17;;;;;;;-0.94;100.00;99817.53;5058448;28;20191;-76
2023/03/06 00:27:24;;;;;;;2.50;2.10;;;;;;;-0.94;100.00;99815.00;5058597;28;20711;-74
2023/03/06 00:29:54;;;;;;;3.13;2.43;;;;;;;-0.93;100.00;99810.72;5056754;28;20198;-73
2023/03/06 00:32:21;;;;;;;4.80;2.70;;;;;;;-0.95;100.00;99810.69;5064704;28;20233;-73
2023/03/06 00:34:48;;;;;;;3.87;2.40;;;;;;;-0.96;100.00;99812.41;5063364;28;20707;-73
2023/03/06 00:37:15;;;;;;;3.20;2.63;;;;;;;-0.96;100.00;99809.00;5054087;28;20286;-73
2023/03/06 00:39:41;;;;;;;3.40;2.73;;;;;;;-0.97;100.00;99803.03;5055766;28;20251;-73
2023/03/06 00:42:09;;;;;;;4.20;2.77;;;;;;;-0.95;100.00;99803.03;5059815;28;20573;-73
2023/03/06 00:44:36;;;;;;;3.17;2.40;;;;;;;-0.94;100.00;99791.09;5060101;28;20239;-73
2023/03/06 00:47:02;;;;;;;3.93;2.80;;;;;;;-0.95;100.00;99790.22;5065925;28;20583;-75
2023/03/06 00:49:30;;;;;;;5.17;3.00;;;;;;;-0.95;100.00;99787.66;5060526;28;20202;-74
2023/03/06 00:51:57;;;;;;;5.57;2.97;;;;;;;-0.96;100.00;99788.53;5060010;23;20246;-76
2023/03/06 00:54:23;;;;;;;3.90;2.80;;;;;;;-0.97;100.00;99774.91;4987919;28;20585;-74
2023/03/06 00:56:49;;;;;;;4.77;3.27;;;;;;;-0.97;100.00;99767.22;4984117;28;20204;-73
2023/03/06 00:59:17;;;;;;;4.10;2.80;;;;;;;-0.95;100.00;99774.88;4971216;28;20206;-75
2023/03/06 01:01:44;;;;;;;4.23;3.00;;;;;;;-0.95;100.00;99767.19;4987445;28;20201;-74
2023/03/06 01:04:13;;;;;;;5.80;3.80;;;;;;;-0.96;100.00;99768.91;4983393;28;20208;-74
2023/03/06 01:06:40;;;;;;;5.93;3.90;;;;;;;-0.97;100.00;99759.53;5007284;28;20235;-74
2023/03/06 01:09:07;;;;;;;7.60;3.83;;;;;;;-0.97;100.00;99767.22;5002356;28;20204;-74
2023/03/06 01:11:33;;;;;;;5.37;3.80;;;;;;;-0.97;100.00;99753.53;5004622;28;20677;-74
2023/03/06 01:13:59;;;;;;;6.83;4.73;;;;;;;-0.99;100.00;99757.78;5003657;28;20699;-74
2023/03/06 01:16:27;;;;;;;5.03;3.67;;;;;;;-0.99;100.00;99748.41;4991556;28;20219;-74
2023/03/06 01:18:54;;;;;;;6.97;4.27;;;;;;;-0.99;100.00;99748.41;4984921;28;20197;-73
2023/03/06 01:21:20;;;;;;;7.37;5.03;;;;;;;-1.00;100.00;99749.28;4987766;28;20616;-76
2023/03/06 01:23:47;;;;;;;5.63;4.57;;;;;;;-0.99;100.00;99745.00;4986948;28;20743;-74
2023/03/06 01:26:13;;;;;;;9.50;4.47;;;;;;;-1.01;100.00;99742.44;4990139;28;20270;-74
2023/03/06 01:28:40;;;;;;;8.97;5.00;;;;;;;-1.00;100.00;99745.88;4986892;28;20527;-73
2023/03/06 01:31:08;;;;;;;7.70;4.77;;;;;;;-0.99;100.00;99743.28;4988814;28;20211;-73
2023/03/06 01:33:37;;;;;;;7.10;4.73;;;;;;;-0.98;100.00;99737.34;4989610;28;20236;-75
2023/03/06 01:36:05;;;;;;;10.33;5.23;;;;;;;-0.98;100.00;99729.66;4984330;28;20261;-74
2023/03/06 01:38:31;;;;;;;6.00;4.67;;;;;;;-0.98;100.00;99736.50;4987638;28;20199;-75
2023/03/06 01:40:58;;;;;;;7.17;4.37;;;;;;;-0.97;100.00;99738.19;4983921;28;20201;-73
2023/03/06 01:43:29;;;;;;;7.00;4.37;;;;;;;-0.96;100.00;99729.69;4998396;28;20220;-74
2023/03/06 01:46:27;;;;;;;8.83;4.77;;;;;;;-0.95;100.00;99728.81;4985207;28;20564;-73
2023/03/06 01:48:59;;;;;;;8.57;4.77;;;;;;;-0.94;100.00;99732.25;4986736;28;20196;-74
2023/03/06 01:51:29;;;;;;;5.83;4.53;;;;;;;-0.91;100.00;99734.84;4999919;28;20407;-75
2023/03/06 01:53:58;;;;;;;6.30;4.03;;;;;;;-0.92;100.00;99726.28;4987601;28;20282;-76
2023/03/06 01:56:24;;;;;;;7.03;4.93;;;;;;;-0.90;100.00;99726.28;4995802;28;20566;-75
2023/03/06 01:58:52;;;;;;;6.90;4.73;;;;;;;-0.90;100.00;99718.63;4991897;28;20573;-74
2023/03/06 02:01:19;;;;;;;6.40;4.40;;;;;;;-0.90;100.00;99721.16;5000884;28;20350;-74
2023/03/06 02:03:46;;;;;;;5.90;4.30;;;;;;;-0.90;100.00;99714.34;4986323;28;20749;-74
2023/03/06 02:06:18;;;;;;;5.90;3.83;;;;;;;-0.92;100.00;99715.19;5005538;28;20207;-74
2023/03/06 02:08:45;;;;;;;6.87;3.97;;;;;;;-0.93;100.00;99710.91;4981784;28;20201;-76
2023/03/06 02:11:15;;;;;;;6.13;4.30;;;;;;;-0.91;100.00;99710.09;4998923;28;20201;-75
2023/03/06 02:13:42;;;;;;;7.80;4.50;;;;;;;-0.92;100.00;99710.91;5000948;28;20588;-73
2023/03/06 02:16:10;;;;;;;6.27;4.50;;;;;;;-0.91;100.00;99704.97;5002701;28;20450;-75
2023/03/06 02:18:37;;;;;;;9.67;4.00;;;;;;;-0.91;100.00;99699.84;5001983;28;20866;-74
2023/03/06 02:21:07;;;;;;;6.97;3.73;;;;;;;-0.91;100.00;99699.84;4987029;28;20536;-73
2023/03/06 02:23:45;;;;;;;6.27;3.97;;;;;;;-0.89;100.00;99698.16;5002728;28;20223;-73
2023/03/06 02:26:13;;;;;;;6.87;4.10;;;;;;;-0.86;100.00;99702.41;4998151;28;20205;-74
2023/03/06 02:28:40;;;;;;;4.97;4.20;;;;;;;-0.85;100.00;99699.88;4999267;28;20205;-74
2023/03/06 02:31:07;;;;;;;7.13;4.40;;;;;;;-0.84;100.00;99696.47;4997837;28;20267;-73
2023/03/06 02:33:34;;;;;;;6.87;4.10;;;;;;;-0.81;100.00;99705.84;4987819;28;20212;-74
2023/03/06 02:36:03;;;;;;;6.63;4.50;;;;;;;-0.80;100.00;99698.19;4988755;28;20226;-74
2023/03/06 02:38:34;;;;;;;7.93;4.10;;;;;;;-0.79;100.00;99699.06;5007814;28;20310;-74
2023/03/06 02:41:03;;;;;;;6.47;4.57;;;;;;;-0.78;100.00;99696.50;4987787;28;20228;-74
2023/03/06 02:43:34;;;;;;;4.97;3.47;;;;;;;-0.78;100.00;99700.75;4986662;28;20211;-74
2023/03/06 02:46:01;;;;;;;10.13;4.10;;;;;;;-0.77;100.00;99703.34;4984402;28;20584;-74
2023/03/06 02:48:28;;;;;;;6.10;4.03;;;;;;;-0.74;100.00;99699.91;5005431;28;20204;-74
2023/03/06 02:50:54;;;;;;;5.00;3.47;;;;;;;-0.72;100.00;99703.38;4983503;28;20219;-76
2023/03/06 02:53:21;;;;;;;6.33;3.97;;;;;;;-0.71;100.00;99689.69;4999895;28;20233;-73
2023/03/06 02:55:48;;;;;;;5.10;3.97;;;;;;;-0.69;100.00;99694.84;4986585;28;20612;-75
2023/03/06 02:58:18;;;;;;;7.70;4.77;;;;;;;-0.71;100.00;99686.28;4980487;28;20292;-74
2023/03/06 03:00:46;;;;;;;5.90;4.03;;;;;;;-0.71;100.00;99679.47;4983679;28;20255;-77
2023/03/06 03:03:13;;;;;;;8.43;4.03;;;;;;;-0.71;100.00;99678.63;4999260;28;20222;-74
2023/03/06 03:05:39;;;;;;;8.43;4.70;;;;;;;-0.71;100.00;99670.94;4986621;28;20256;-74
2023/03/06 03:08:13;;;;;;;5.13;3.80;;;;;;;-0.71;100.00;99674.34;4985454;28;20292;-74
2023/03/06 03:10:40;;;;;;;5.70;4.03;;;;;;;-0.70;100.00;99675.19;4984885;28;20558;-74
2023/03/06 03:13:06;;;;;;;7.43;4.07;;;;;;;-0.72;100.00;99670.09;5002772;28;20301;-73
2023/03/06 03:15:34;;;;;;;7.20;4.47;;;;;;;-0.71;100.00;99668.38;4986658;28;20249;-74
2023/03/06 03:18:04;;;;;;;6.23;4.67;;;;;;;-0.71;100.00;99656.41;4988411;28;20228;-74
2023/03/06 03:20:31;;;;;;;8.43;4.70;;;;;;;-0.71;100.00;99653.88;4983160;28;20211;-75
2023/03/06 03:22:57;;;;;;;7.57;4.90;;;;;;;-0.70;100.00;99647.03;4983927;28;20251;-74
2023/03/06 03:25:25;;;;;;;7.50;4.23;;;;;;;-0.68;100.00;99650.47;5000884;28;21106;-74
2023/03/06 03:27:54;;;;;;;7.33;4.90;;;;;;;-0.66;100.00;99646.22;4988669;28;20202;-74
2023/03/06 03:30:22;;;;;;;7.90;5.20;;;;;;;-0.66;100.00;99648.78;4988854;28;20202;-75
2023/03/06 03:32:48;;;;;;;6.53;4.50;;;;;;;-0.66;100.00;99644.50;4984585;28;20552;-74
2023/03/06 03:35:16;;;;;;;7.90;5.27;;;;;;;-0.64;100.00;99644.50;4986074;28;20216;-74
2023/03/06 03:37:43;;;;;;;7.77;4.90;;;;;;;-0.65;100.00;99641.09;5004763;28;20216;-75
2023/03/06 03:40:10;;;;;;;7.03;4.80;;;;;;;-0.63;100.00;99628.31;4983673;28;20193;-75
2023/03/06 03:42:37;;;;;;;7.37;4.93;;;;;;;-0.65;100.00;99630.88;4984199;28;20568;-75
2023/03/06 03:45:06;;;;;;;11.70;5.80;;;;;;;-0.62;100.00;99630.00;4982045;28;20209;-74
2023/03/06 03:47:32;;;;;;;6.33;4.60;;;;;;;-0.62;100.00;99627.44;4987628;28;20196;-74
2023/03/06 03:50:00;;;;;;;9.00;5.37;;;;;;;-0.61;100.00;99634.28;4986734;28;20219;-75
2023/03/06 03:52:29;;;;;;;10.20;5.40;;;;;;;-0.61;100.00;99630.00;4996947;28;20256;-75
2023/03/06 03:54:56;;;;;;;11.03;5.33;;;;;;;-0.61;100.00;99629.16;4986030;28;20202;-76
2023/03/06 03:57:22;;;;;;;8.33;5.30;;;;;;;-0.61;100.00;99624.03;4987006;28;20220;-73
2023/03/06 03:59:52;;;;;;;11.77;6.33;;;;;;;-0.61;100.00;99626.59;4984906;28;20586;-75
2023/03/06 04:02:24;;;;;;;8.13;5.00;;;;;;;-0.61;100.00;99626.59;4989135;28;20224;-74
2023/03/06 04:04:59;;;;;;;9.63;5.30;;;;;;;-0.58;100.00;99632.59;4995008;28;20250;-74
2023/03/06 04:07:26;;;;;;;12.33;5.50;;;;;;;-0.58;100.00;99627.47;4999336;28;20257;-73
2023/03/06 04:09:54;;;;;;;8.70;5.17;;;;;;;-0.57;100.00;99629.16;4996095;28;20258;-74
2023/03/06 04:12:21;;;;;;;7.23;4.80;;;;;;;-0.54;100.00;99627.50;4987026;28;20620;-74
2023/03/06 04:14:48;;;;;;;10.63;5.93;;;;;;;-0.53;100.00;99624.91;4986276;28;20624;-74
2023/03/06 04:17:14;;;;;;;10.20;5.63;;;;;;;-0.50;100.00;99634.31;4984381;28;20227;-74
2023/03/06 04:19:40;;;;;;;9.77;5.63;;;;;;;-0.50;100.00;99631.75;4994403;28;20469;-75
2023/03/06 04:22:07;;;;;;;9.50;5.70;;;;;;;-0.49;100.00;99638.56;4984492;28;20339;-76
2023/03/06 04:24:36;;;;;;;9.57;5.50;;;;;;;-0.47;100.00;99624.94;4988329;28;20204;-75
2023/03/06 04:27:04;;;;;;;11.93;6.03;;;;;;;-0.46;100.00;99630.91;5002337;28;20885;-74
2023/03/06 04:29:31;;;;;;;9.43;5.70;;;;;;;-0.44;100.00;99626.63;4987668;28;20274;-73
2023/03/06 04:31:57;;;;;;;10.70;5.80;;;;;;;-0.45;100.00;99624.94;4983976;28;20697;-75
2023/03/06 04:34:24;;;;;;;13.07;6.50;;;;;;;-0.46;100.00;99624.09;4995202;28;20200;-75
2023/03/06 04:36:50;;;;;;;11.93;6.60;;;;;;;-0.46;100.00;99618.09;4987800;28;20250;-74
2023/03/06 04:39:17;;;;;;;10.20;6.43;;;;;;;-0.46;100.00;99620.66;4987637;28;20202;-74
2023/03/06 04:41:44;;;;;;;17.17;6.43;;;;;;;-0.44;100.00;99616.38;4989015;28;20228;-75
2023/03/06 04:44:11;;;;;;;12.53;6.67;;;;;;;-0.46;100.00;99615.53;5007977;28;20768;-75
2023/03/06 04:46:38;;;;;;;10.17;6.63;;;;;;;-0.49;100.00;99608.72;5010723;28;20669;-74
2023/03/06 04:49:04;;;;;;;11.73;6.33;;;;;;;-0.50;100.00;99611.28;5007469;28;21791;-74
2023/03/06 04:51:31;;;;;;;11.53;6.60;;;;;;;-0.51;100.00;99606.97;5006703;28;20849;-74
2023/03/06 04:53:57;;;;;;;12.33;6.13;;;;;;;-0.53;100.00;99599.28;5004577;28;20211;-74
2023/03/06 04:56:23;;;;;;;13.77;6.67;;;;;;;-0.54;100.00;99591.63;5004326;28;20269;-74
2023/03/06 04:58:50;;;;;;;10.33;6.13;;;;;;;-0.56;100.00;99596.75;5001773;28;20197;-74
2023/03/06 05:01:18;;;;;;;12.87;6.73;;;;;;;-0.57;100.00;99598.44;5002302;28;20222;-77
2023/03/06 05:03:44;;;;;;;11.70;6.73;;;;;;;-0.59;100.00;99596.72;5003809;28;20729;-74
2023/03/06 05:06:11;;;;;;;12.70;6.73;;;;;;;-0.61;100.00;99589.03;4999534;28;20884;-76
2023/03/06 05:08:37;;;;;;;10.60;5.83;;;;;;;-0.64;100.00;99589.03;5003800;28;20218;-74
2023/03/06 05:11:03;;;;;;;12.93;6.90;;;;;;;-0.66;100.00;99584.78;5000911;28;20204;-75
2023/03/06 05:13:30;;;;;;;14.13;6.37;;;;;;;-0.66;100.00;99585.63;5001070;28;20577;-74
2023/03/06 05:16:01;;;;;;;13.77;6.70;;;;;;;-0.68;100.00;99582.19;5004295;28;20670;-74
2023/03/06 05:18:29;;;;;;;11.57;6.93;;;;;;;-0.68;100.00;99582.19;5005033;28;20243;-74
2023/03/06 05:20:58;;;;;;;11.10;6.40;;;;;;;-0.71;100.00;99578.78;5000268;28;20421;-74
2023/03/06 05:23:24;;;;;;;12.33;6.10;;;;;;;-0.72;100.00;99577.94;5006168;28;20220;-74
2023/03/06 05:25:51;;;;;;;14.17;6.97;;;;;;;-0.71;100.00;99579.63;5002091;28;20287;-74
2023/03/06 05:28:17;;;;;;;10.53;6.20;;;;;;;-0.71;100.00;99581.34;5001644;28;20201;-73
2023/03/06 05:30:43;;;;;;;12.80;6.63;;;;;;;-0.73;100.00;99576.22;5001340;28;20204;-75
2023/03/06 05:33:10;;;;;;;14.70;7.00;;;;;;;-0.71;100.00;99583.91;5002748;28;20223;-74
2023/03/06 05:35:37;;;;;;;14.10;6.93;;;;;;;-0.73;100.00;99589.00;4997882;28;20193;-74
2023/03/06 05:38:04;;;;;;;10.20;6.83;;;;;;;-0.73;100.00;99581.31;4998986;28;20228;-74
2023/03/06 05:40:30;;;;;;;11.37;6.27;;;;;;;-0.72;100.00;99594.97;5006276;28;20939;-75
2023/03/06 05:42:56;;;;;;;16.37;6.87;;;;;;;-0.72;100.00;99595.84;5002609;28;20750;-74
2023/03/06 05:45:23;;;;;;;11.30;6.67;;;;;;;-0.72;100.00;99600.97;5003912;28;20210;-75
2023/03/06 05:47:50;;;;;;;12.30;6.53;;;;;;;-0.71;100.00;99591.56;5000681;28;20204;-75
2023/03/06 05:50:16;;;;;;;11.20;6.37;;;;;;;-0.70;100.00;99595.81;4999936;28;20258;-75
2023/03/06 05:52:44;;;;;;;14.10;7.07;;;;;;;-0.68;100.00;99601.84;4999109;28;20232;-74
2023/03/06 05:55:12;;;;;;;12.30;6.87;;;;;;;-0.66;100.00;99598.41;4995867;28;20212;-76
2023/03/06 05:57:38;;;;;;;11.63;6.83;;;;;;;-0.65;100.00;99597.56;5002300;28;20243;-76
2023/03/06 06:00:06;;;;;;;13.93;7.37;;;;;;;-0.63;100.00;99601.00;4997250;28;20214;-76
2023/03/06 06:02:38;;;;;;;15.17;7.40;;;;;;;-0.63;100.00;99601.00;4999855;28;20235;-76
2023/03/06 06:05:06;;;;;;;11.87;6.13;;;;;;;-0.61;100.00;99598.44;4999338;28;20633;-74
2023/03/06 06:07:32;;;;;;;14.53;7.37;;;;;;;-0.59;100.00;99601.84;5003640;28;20221;-76
2023/03/06 06:10:00;;;;;;;13.90;7.07;;;;;;;-0.57;100.00;99603.56;5006412;28;20207;-74
2023/03/06 06:12:28;;;;;;;12.00;7.03;;;;;;;-0.55;100.00;99602.72;5006223;28;20225;-75
2023/03/06 06:14:55;;;;;;;12.93;6.20;;;;;;;-0.55;100.00;99603.56;5011414;28;20192;-74
2023/03/06 06:17:21;;;;;;;11.57;6.83;;;;;;;-0.54;100.00;99600.16;4992585;28;20216;-74
2023/03/06 06:19:48;;;;;;;11.10;6.93;;;;;;;-0.52;100.00;99598.47;5009758;28;20208;-75
2023/03/06 06:22:14;;;;;;;13.80;6.90;;;;;;;-0.51;100.00;99594.19;5004683;28;20217;-73
2023/03/06 06:24:40;;;;;;;15.93;7.37;;;;;;;-0.49;100.00;99597.59;5004355;28;20689;-75
2023/03/06 06:27:08;;;;;;;11.30;6.53;;;;;;;-0.47;100.00;99593.34;5006952;28;20646;-74
2023/03/06 06:29:35;;;;;;;12.33;7.17;;;;;;;-0.45;100.00;99594.22;5006995;28;20212;-75
2023/03/06 06:32:02;;;;;;;15.63;7.40;;;;;;;-0.44;100.00;99588.22;4996284;28;20224;-76
2023/03/06 06:34:30;;;;;;;13.87;7.57;;;;;;;-0.42;100.00;99599.34;5005372;28;20226;-74
2023/03/06 06:36:57;;;;;;;14.87;7.03;;;;;;;-0.41;100.00;99588.22;5002041;28;20220;-74
2023/03/06 06:39:24;;;;;;;12.40;6.70;;;;;;;-0.39;100.00;99589.09;5007580;28;20193;-76
2023/03/06 06:41:51;;;;;;;11.00;6.63;;;;;;;-145.03;100.00;77526.00;5007922;28;20227;-75
2023/03/06 06:44:19;;;;;;;13.83;7.27;;;;;;;-145.03;100.00;77530.00;5008323;28;20200;-74
2023/03/06 06:46:46;;;;;;;16.67;8.07;;;;;;;-145.03;100.00;77522.03;5005411;28;20212;-74
2023/03/06 06:49:12;;;;;;;17.10;7.70;;;;;;;-145.03;100.00;77516.03;5006506;28;20216;-76
2023/03/06 06:51:40;;;;;;;17.23;7.50;;;;;;;-145.03;100.00;77518.03;5008153;28;20205;-74
2023/03/06 06:54:07;;;;;;;13.33;6.47;;;;;;;-145.03;100.00;77514.03;4992809;22;20247;-72
2023/03/06 06:56:33;;;;;;;16.83;7.77;;;;;;;-145.03;100.00;77514.03;4971287;28;20210;-72
2023/03/06 06:59:00;;;;;;;14.00;7.63;;;;;;;-145.03;100.00;77504.06;4970316;28;20288;-72
2023/03/06 07:01:29;;;;;;;16.40;7.77;;;;;;;-145.03;100.00;77496.06;4966979;28;20551;-72
2023/03/06 07:03:56;;;;;;;12.87;8.07;;;;;;;-145.03;100.00;77496.06;4963944;28;20719;-73
2023/03/06 07:06:22;;;;;;;14.10;7.87;;;;;;;-145.03;100.00;77488.09;4966990;28;20570;-72
2023/03/06 07:08:48;;;;;;;16.80;7.80;;;;;;;-145.03;100.00;77486.09;4965847;28;20203;-73
2023/03/06 07:11:17;;;;;;;14.83;7.60;;;;;;;-145.03;100.00;77480.09;4964621;28;20190;-72
2023/03/06 07:13:43;;;;;;;16.37;8.40;;;;;;;-145.03;100.00;77480.09;4966148;28;20310;-73
2023/03/06 07:16:10;;;;;;;14.40;7.53;;;;;;;-145.03;100.00;77476.09;4967533;28;20209;-73
2023/03/06 07:18:37;;;;;;;16.70;7.93;;;;;;;-145.03;100.00;77478.09;4966333;28;20228;-73
2023/03/06 07:21:04;;;;;;;12.90;7.50;;;;;;;-145.03;100.00;77470.13;4965943;28;20659;-74
2023/03/06 07:23:31;;;;;;;14.50;7.63;;;;;;;-145.03;100.00;77470.13;4967535;28;20267;-73
2023/03/06 07:25:58;;;;;;;15.37;8.17;;;;;;;-145.03;100.00;77464.13;4966727;28;20209;-73
2023/03/06 07:28:24;;;;;;;14.30;7.00;;;;;;;-145.03;100.00;77456.13;4959091;28;20198;-74
2023/03/06 07:30:50;;;;;;;16.83;8.47;;;;;;;-145.03;100.00;77450.16;4975549;28;20206;-74
2023/03/06 07:33:17;;;;;;;17.80;8.30;;;;;;;-145.03;100.00;77446.16;4968348;28;20578;-73
2023/03/06 07:35:45;;;;;;;16.27;8.80;;;;;;;-145.03;100.00;77444.16;4974741;28;20852;-74
2023/03/06 07:38:11;;;;;;;17.97;9.37;;;;;;;-145.03;100.00;77432.19;4971762;28;20552;-73
2023/03/06 07:40:38;;;;;;;12.93;7.67;;;;;;;-145.03;100.00;77428.19;4971099;28;20212;-73
2023/03/06 07:43:05;;;;;;;16.90;9.07;;;;;;;-145.03;100.00;77422.19;4965146;28;20597;-73
2023/03/06 07:45:39;;;;;;;20.30;8.47;;;;;;;-145.03;100.00;77406.22;4965679;28;20197;-73
2023/03/06 07:48:06;;;;;;;18.77;8.93;;;;;;;-145.03;100.00;77394.25;4966127;28;20198;-73
2023/03/06 07:50:33;;;;;;;14.47;8.43;;;;;;;-145.03;100.00;77390.25;4964005;28;20194;-74
2023/03/06 07:53:01;;;;;;;20.23;8.10;;;;;;;-145.03;100.00;77390.25;4958393;28;20234;-74
2023/03/06 07:55:28;;;;;;;18.13;8.97;;;;;;;-145.03;100.00;77378.28;4964511;28;20198;-74
2023/03/06 07:57:54;;;;;;;12.80;7.63;;;;;;;-145.03;100.00;77378.28;4963681;28;20412;-74
2023/03/06 08:00:21;;;;;;;16.17;8.50;;;;;;;-145.03;100.00;77374.28;4964654;28;20200;-74
2023/03/06 08:02:48;;;;;;;12.57;7.73;;;;;;;-145.03;100.00;77364.31;4962012;28;20595;-74
2023/03/06 08:05:17;;;;;;;16.10;8.33;;;;;;;-145.03;100.00;77360.31;4964681;28;20207;-74
2023/03/06 08:07:44;;;;;;;15.03;7.97;;;;;;;-145.03;100.00;77362.31;4959385;28;20209;-74
2023/03/06 08:10:15;;;;;;;12.83;7.63;;;;;;;-145.03;100.00;77364.31;4965370;28;20202;-74
2023/03/06 08:12:42;;;;;;;13.70;7.37;;;;;;;-145.03;100.00;77356.31;4964383;28;20222;-74
2023/03/06 08:15:09;;;;;;;12.27;6.93;;;;;;;-145.03;100.00;77354.31;4963630;28;20197;-74
2023/03/06 08:17:36;;;;;;;14.40;7.70;;;;;;;-145.03;100.00;77346.34;4969368;28;20222;-74
2023/03/06 08:20:02;;;;;;;11.90;6.10;;;;;;;-145.03;100.00;77342.34;4970461;28;20209;-73
2023/03/06 08:22:29;;;;;;;12.87;6.63;;;;;;;-145.03;100.00;77336.34;4970333;28;20286;-73
2023/03/06 08:24:55;;;;;;;11.77;6.97;;;;;;;-145.03;100.00;77338.34;4967340;28;20202;-73
2023/03/06 08:27:23;;;;;;;10.47;6.67;;;;;;;-145.03;100.00;77326.38;4967968;28;20198;-73
2023/03/06 08:29:49;;;;;;;12.97;7.47;;;;;;;-145.03;100.00;77318.38;4970181;28;20209;-74
2023/03/06 08:32:16;;;;;;;12.03;6.37;;;;;;;-145.03;100.00;77316.41;4971496;28;20563;-74
2023/03/06 08:34:44;;;;;;;11.17;6.90;;;;;;;-145.03;100.00;77312.41;4968954;28;20567;-74
2023/03/06 08:37:10;;;;;;;9.07;6.00;;;;;;;-145.03;100.00;77306.41;4964620;28;20206;-74
2023/03/06 08:39:37;;;;;;;11.83;6.33;;;;;;;-145.03;100.00;77286.44;4970399;28;20671;-73
2023/03/06 08:42:03;;;;;;;15.70;6.90;;;;;;;-145.03;100.00;77270.47;4970898;28;20201;-74
2023/03/06 08:44:31;;;;;;;13.10;6.87;;;;;;;-145.03;100.00;77252.50;4966825;28;20606;-74
2023/03/06 08:46:57;;;;;;;10.97;6.63;;;;;;;-145.03;100.00;77240.53;4967878;28;20553;-74
2023/03/06 08:49:24;;;;;;;11.60;6.33;;;;;;;-145.03;100.00;77224.56;4967597;28;20197;-74
2023/03/06 08:51:50;;;;;;;10.03;5.90;;;;;;;-145.03;100.00;77212.59;4969354;28;20760;-74
2023/03/06 08:54:17;;;;;;;12.17;6.50;;;;;;;-145.03;100.00;77202.59;4969618;28;20222;-74
2023/03/06 08:56:44;;;;;;;13.47;6.73;;;;;;;-145.03;100.00;77204.59;4965554;28;20198;-74
2023/03/06 08:59:12;;;;;;;13.63;6.63;;;;;;;-145.03;100.00;77194.63;4966755;28;20231;-74
2023/03/06 09:01:41;;;;;;;12.73;6.80;;;;;;;-145.03;100.00;77206.59;4970409;28;20202;-74
2023/03/06 09:04:10;;;;;;;12.50;7.00;;;;;;;-145.03;100.00;77202.59;4967057;28;20218;-74
2023/03/06 09:06:38;;;;;;;10.63;5.80;;;;;;;-145.03;100.00;77184.63;4968318;28;20670;-74
2023/03/06 09:09:06;;;;;;;10.20;6.33;;;;;;;-145.03;100.00;77190.63;4967713;28;20688;-74
2023/03/06 09:11:33;;;;;;;15.27;8.77;;;;;;;-145.03;100.00;77188.63;4965653;28;20717;-74
2023/03/06 09:14:00;;;;;;;12.27;7.67;;;;;;;-145.03;100.00;77186.63;4967130;28;20225;-74
2023/03/06 09:16:27;;;;;;;10.03;6.57;;;;;;;-145.03;100.00;77186.63;4965408;28;20211;-74
2023/03/06 09:18:56;;;;;;;12.87;6.23;;;;;;;-145.03;100.00;77174.66;4968741;28;20217;-74
2023/03/06 09:21:23;;;;;;;11.10;6.23;;;;;;;-145.03;100.00;77168.66;4966901;28;20281;-74
2023/03/06 09:23:50;;;;;;;10.80;6.70;;;;;;;-145.03;100.00;77166.66;4966365;28;20219;-75
2023/03/06 09:26:17;;;;;;;16.93;10.53;;;;;;;-145.03;100.00;77156.69;4967547;28;20197;-74
2023/03/06 09:28:44;;;;;;;12.83;8.63;;;;;;;-145.03;100.00;77146.72;4966630;28;20190;-72
2023/03/06 09:31:12;;;;;;;12.00;7.40;;;;;;;-145.03;100.00;77148.69;4965337;28;20199;-75
2023/03/06 09:33:39;;;;;;;11.37;7.10;;;;;;;-145.03;100.00;77134.72;4981376;28;20236;-72
2023/03/06 09:36:08;;;;;;;10.97;6.77;;;;;;;-145.03;100.00;77128.75;4969045;28;20206;-73
2023/03/06 09:38:35;;;;;;;10.87;6.30;;;;;;;-145.03;100.00;77126.75;4964536;28;20211;-73
2023/03/06 09:41:07;;;;;;;13.13;7.27;;;;;;;-145.03;100.00;77114.78;4966936;28;20209;-73
2023/03/06 09:43:37;;;;;;;12.73;6.57;;;;;;;-145.03;100.00;77094.81;4966989;28;20716;-73
2023/03/06 09:46:13;;;;;;;12.77;7.13;;;;;;;-145.03;100.00;77084.81;4968932;28;20194;-73
2023/03/06 09:48:53;;;;;;;10.57;6.90;;;;;;;-145.03;100.00;77056.88;4966917;28;20666;-73
2023/03/06 09:51:27;;;;;;;10.87;6.50;;;;;;;-145.03;100.00;77046.91;4963527;28;20223;-73
2023/03/06 09:54:00;;;;;;;11.97;6.47;;;;;;;-145.03;100.00;77040.91;4965055;28;20399;-73
2023/03/06 09:56:30;;;;;;;11.00;6.53;;;;;;;-145.03;100.00;77052.88;4967222;28;20564;-73
2023/03/06 09:59:04;;;;;;;11.80;6.67;;;;;;;-145.03;100.00;77060.88;4964484;28;20246;-73
2023/03/06 10:01:34;;;;;;;9.43;6.00;;;;;;;-145.03;100.00;77046.91;4966616;28;20205;-73
2023/03/06 10:04:09;;;;;;;10.33;6.67;;;;;;;-145.03;100.00;77044.91;4965312;28;20221;-73
2023/03/06 10:06:45;;;;;;;10.87;6.10;;;;;;;-145.03;100.00;77038.91;4967833;28;20272;-73
2023/03/06 10:09:15;;;;;;;11.13;7.13;;;;;;;-145.03;100.00;77040.91;4965694;28;20198;-73
2023/03/06 10:11:47;;;;;;;8.63;5.63;;;;;;;-145.03;100.00;77040.91;4961537;28;20210;-73
2023/03/06 10:14:22;;;;;;;12.37;6.73;;;;;;;-145.03;100.00;77036.91;4961720;28;20328;-73
2023/03/06 10:16:48;;;;;;;11.00;6.33;;;;;;;-145.03;100.00;77052.88;4965584;28;20202;-73
2023/03/06 10:19:17;;;;;;;9.97;6.13;;;;;;;-145.03;100.00;77046.91;4963533;28;20234;-73
2023/03/06 10:21:56;;;;;;;9.97;5.70;;;;;;;-145.03;100.00;77066.84;4965041;28;20690;-73
2023/03/06 10:24:42;;;;;;;9.90;6.20;;;;;;;-145.03;100.00;77046.91;4964730;28;20737;-74
2023/03/06 10:27:16;;;;;;;8.63;5.63;;;;;;;-145.03;100.00;77042.91;4964673;28;20202;-74
2023/03/06 10:29:51;;;;;;;9.07;5.90;;;;;;;-145.03;100.00;77018.94;4964507;28;20214;-74
2023/03/06 10:32:26;;;;;;;8.83;6.00;;;;;;;-145.03;100.00;77012.97;4966894;28;20205;-74
2023/03/06 10:34:56;;;;;;;10.77;7.00;;;;;;;-145.03;100.00;77014.97;4966822;28;20593;-74
2023/03/06 10:37:24;;;;;;;11.37;6.20;;;;;;;-145.03;100.00;77000.97;4966026;28;20208;-74
2023/03/06 10:39:55;;;;;;;11.10;6.97;;;;;;;-145.03;100.00;76995.00;4977072;28;20206;-74
2023/03/06 10:42:21;;;;;;;10.17;6.93;;;;;;;-145.03;100.00;77002.97;4963678;28;20205;-74
2023/03/06 10:44:47;;;;;;;10.50;7.07;;;;;;;-145.03;100.00;76985.00;4964681;28;20783;-74
2023/03/06 10:47:29;;;;;;;9.93;7.30;;;;;;;-145.03;100.00;76967.06;4966920;28;20210;-74
2023/03/06 10:50:00;;;;;;;11.00;6.50;;;;;;;-145.03;100.00;76961.06;4965078;28;20667;-74
2023/03/06 10:52:31;;;;;;;9.70;6.87;;;;;;;-145.03;100.00;76965.06;4959344;28;20245;-74
2023/03/06 10:55:23;;;;;;;12.03;7.20;;;;;;;-145.03;100.00;76943.09;4960971;28;20203;-74
2023/03/06 10:57:49;;;;;;;10.80;7.43;;;;;;;-145.03;100.00;76943.09;4964390;28;20218;-74
2023/03/06 11:00:26;;;;;;;11.33;7.10;;;;;;;-145.03;100.00;76955.06;4965731;28;20200;-74
2023/03/06 11:03:06;;;;;;;10.10;6.60;;;;;;;-145.03;100.00;76955.06;4965832;28;20261;-73
2023/03/06 11:05:32;;;;;;;12.77;6.93;;;;;;;-145.03;100.00;76963.06;4964934;28;20193;-73
2023/03/06 11:08:00;;;;;;;10.60;6.37;;;;;;;-145.03;100.00;76955.06;4966382;28;20570;-73
2023/03/06 11:10:28;;;;;;;10.67;6.93;;;;;;;-145.03;100.00;76951.09;4969259;28;20587;-74
2023/03/06 11:12:59;;;;;;;10.13;6.90;;;;;;;-145.03;100.00;76981.03;4965355;28;20226;-74
2023/03/06 11:15:26;;;;;;;9.17;5.50;;;;;;;-145.03;100.00;76983.03;4962135;28;20297;-73
2023/03/06 11:17:59;;;;;;;8.93;6.20;;;;;;;-145.03;100.00;76987.00;4961613;28;20217;-73
2023/03/06 11:20:29;;;;;;;10.93;5.70;;;;;;;-145.03;100.00;76993.00;4964477;28;20737;-73
2023/03/06 11:23:05;;;;;;;10.37;6.57;;;;;;;-145.03;100.00;77008.97;4971245;28;20236;-73